sensor_id;sensor_type;location;lat;lon;timestamp;temperature;humidity
530;DHT22;251;48.704;9.210;2022-09-09T00:01:50;13.20;43.00
530;DHT22;251;48.704;9.210;2022-09-09T00:04:26;13.00;43.50
530;DHT22;251;48.704;9.210;2022-09-09T00:06:59;13.10;43.80
530;DHT22;251;48.704;9.210;2022-09-09T00:09:28;12.90;43.20
530;DHT22;251;48.704;9.210;2022-09-09T00:12:00;12.90;44.00
530;DHT22;251;48.704;9.210;2022-09-09T00:14:36;12.90;43.70
530;DHT22;251;48.704;9.210;2022-09-09T00:17:08;13.10;44.00
530;DHT22;251;48.704;9.210;2022-09-09T00:19:41;12.90;43.20
530;DHT22;251;48.704;9.210;2022-09-09T00:22:16;13.00;43.40
530;DHT22;251;48.704;9.210;2022-09-09T00:24:44;13.00;44.00
530;DHT22;251;48.704;9.210;2022-09-09T00:27:23;12.80;44.90
530;DHT22;251;48.704;9.210;2022-09-09T00:29:56;12.80;44.70
530;DHT22;251;48.704;9.210;2022-09-09T00:32:29;12.90;43.80
530;DHT22;251;48.704;9.210;2022-09-09T00:35:00;12.80;43.80
530;DHT22;251;48.704;9.210;2022-09-09T00:37:28;12.80;44.90
530;DHT22;251;48.704;9.210;2022-09-09T00:39:59;12.90;45.60
530;DHT22;251;48.704;9.210;2022-09-09T00:42:36;12.80;46.70
530;DHT22;251;48.704;9.210;2022-09-09T00:45:31;12.60;48.20
530;DHT22;251;48.704;9.210;2022-09-09T00:48:04;12.90;47.00
530;DHT22;251;48.704;9.210;2022-09-09T00:50:43;12.80;48.10
530;DHT22;251;48.704;9.210;2022-09-09T00:53:24;12.60;48.10
530;DHT22;251;48.704;9.210;2022-09-09T00:55:59;12.50;47.80
530;DHT22;251;48.704;9.210;2022-09-09T00:58:30;12.60;48.30
530;DHT22;251;48.704;9.210;2022-09-09T01:01:03;12.70;48.40
530;DHT22;251;48.704;9.210;2022-09-09T01:03:34;12.60;48.90
530;DHT22;251;48.704;9.210;2022-09-09T01:06:11;12.70;50.00
530;DHT22;251;48.704;9.210;2022-09-09T01:09:13;12.90;50.50
530;DHT22;251;48.704;9.210;2022-09-09T01:11:51;13.10;50.20
530;DHT22;251;48.704;9.210;2022-09-09T01:14:29;13.20;49.80
530;DHT22;251;48.704;9.210;2022-09-09T01:17:01;12.90;50.10
530;DHT22;251;48.704;9.210;2022-09-09T01:19:39;12.90;49.50
530;DHT22;251;48.704;9.210;2022-09-09T01:22:13;13.20;49.70
530;DHT22;251;48.704;9.210;2022-09-09T01:25:09;12.80;49.70
530;DHT22;251;48.704;9.210;2022-09-09T01:28:00;12.90;49.60
530;DHT22;251;48.704;9.210;2022-09-09T01:30:37;13.20;50.10
530;DHT22;251;48.704;9.210;2022-09-09T01:33:07;12.90;49.60
530;DHT22;251;48.704;9.210;2022-09-09T01:35:42;12.90;50.40
530;DHT22;251;48.704;9.210;2022-09-09T01:38:13;13.10;50.30
530;DHT22;251;48.704;9.210;2022-09-09T01:40:41;12.90;50.10
530;DHT22;251;48.704;9.210;2022-09-09T01:43:09;13.00;51.20
530;DHT22;251;48.704;9.210;2022-09-09T01:45:37;12.70;50.40
530;DHT22;251;48.704;9.210;2022-09-09T01:48:04;12.80;50.00
530;DHT22;251;48.704;9.210;2022-09-09T01:50:41;12.80;50.80
530;DHT22;251;48.704;9.210;2022-09-09T01:53:08;12.90;49.90
530;DHT22;251;48.704;9.210;2022-09-09T01:55:39;12.90;50.60
530;DHT22;251;48.704;9.210;2022-09-09T01:58:21;12.80;52.10
530;DHT22;251;48.704;9.210;2022-09-09T02:00:59;13.20;52.30
530;DHT22;251;48.704;9.210;2022-09-09T02:03:29;12.70;50.60
530;DHT22;251;48.704;9.210;2022-09-09T02:06:15;12.90;50.40
530;DHT22;251;48.704;9.210;2022-09-09T02:08:48;13.00;51.40
530;DHT22;251;48.704;9.210;2022-09-09T02:11:17;12.80;50.80
530;DHT22;251;48.704;9.210;2022-09-09T02:14:05;13.10;50.40
530;DHT22;251;48.704;9.210;2022-09-09T02:16:38;12.80;50.70
530;DHT22;251;48.704;9.210;2022-09-09T02:19:09;12.80;50.70
530;DHT22;251;48.704;9.210;2022-09-09T02:21:55;13.10;50.60
530;DHT22;251;48.704;9.210;2022-09-09T02:24:24;12.80;50.60
530;DHT22;251;48.704;9.210;2022-09-09T02:27:05;13.00;50.20
530;DHT22;251;48.704;9.210;2022-09-09T02:29:36;12.70;49.60
530;DHT22;251;48.704;9.210;2022-09-09T02:32:06;12.90;48.30
530;DHT22;251;48.704;9.210;2022-09-09T02:34:42;12.80;48.70
530;DHT22;251;48.704;9.210;2022-09-09T02:37:11;12.80;49.30
530;DHT22;251;48.704;9.210;2022-09-09T02:39:40;12.80;49.80
530;DHT22;251;48.704;9.210;2022-09-09T02:42:11;12.90;49.50
530;DHT22;251;48.704;9.210;2022-09-09T02:44:41;12.80;48.70
530;DHT22;251;48.704;9.210;2022-09-09T02:47:29;12.80;49.00
530;DHT22;251;48.704;9.210;2022-09-09T02:50:11;13.00;49.40
530;DHT22;251;48.704;9.210;2022-09-09T02:52:48;12.50;48.20
530;DHT22;251;48.704;9.210;2022-09-09T02:55:20;12.60;48.70
530;DHT22;251;48.704;9.210;2022-09-09T02:57:52;12.80;48.60
530;DHT22;251;48.704;9.210;2022-09-09T03:00:25;12.40;48.40
530;DHT22;251;48.704;9.210;2022-09-09T03:02:54;12.90;49.20
530;DHT22;251;48.704;9.210;2022-09-09T03:05:21;12.60;49.50
530;DHT22;251;48.704;9.210;2022-09-09T03:07:49;12.40;49.40
530;DHT22;251;48.704;9.210;2022-09-09T03:10:18;12.80;51.70
530;DHT22;251;48.704;9.210;2022-09-09T03:12:45;12.60;52.10
530;DHT22;251;48.704;9.210;2022-09-09T03:15:12;12.70;52.10
530;DHT22;251;48.704;9.210;2022-09-09T03:17:41;12.40;51.50
530;DHT22;251;48.704;9.210;2022-09-09T03:20:09;12.40;54.60
530;DHT22;251;48.704;9.210;2022-09-09T03:22:37;12.40;55.10
530;DHT22;251;48.704;9.210;2022-09-09T03:25:04;12.50;54.30
530;DHT22;251;48.704;9.210;2022-09-09T03:27:33;12.60;51.00
530;DHT22;251;48.704;9.210;2022-09-09T03:30:01;12.30;50.90
530;DHT22;251;48.704;9.210;2022-09-09T03:32:29;12.50;53.30
530;DHT22;251;48.704;9.210;2022-09-09T03:34:58;12.50;52.00
530;DHT22;251;48.704;9.210;2022-09-09T03:37:25;12.60;52.00
530;DHT22;251;48.704;9.210;2022-09-09T03:39:53;12.60;52.00
530;DHT22;251;48.704;9.210;2022-09-09T03:42:21;12.60;51.50
530;DHT22;251;48.704;9.210;2022-09-09T03:44:52;12.60;51.50
530;DHT22;251;48.704;9.210;2022-09-09T03:47:22;12.50;50.80
530;DHT22;251;48.704;9.210;2022-09-09T03:49:52;12.80;51.40
530;DHT22;251;48.704;9.210;2022-09-09T03:52:20;12.40;50.90
530;DHT22;251;48.704;9.210;2022-09-09T03:54:51;12.50;51.90
530;DHT22;251;48.704;9.210;2022-09-09T03:57:18;12.40;52.20
530;DHT22;251;48.704;9.210;2022-09-09T03:59:45;12.50;52.70
530;DHT22;251;48.704;9.210;2022-09-09T04:02:12;12.40;53.30
530;DHT22;251;48.704;9.210;2022-09-09T04:04:39;12.50;53.60
530;DHT22;251;48.704;9.210;2022-09-09T04:07:06;12.50;52.50
530;DHT22;251;48.704;9.210;2022-09-09T04:09:34;12.50;51.00
530;DHT22;251;48.704;9.210;2022-09-09T04:12:02;12.50;51.50
530;DHT22;251;48.704;9.210;2022-09-09T04:14:29;12.70;52.30
530;DHT22;251;48.704;9.210;2022-09-09T04:16:57;12.40;51.70
530;DHT22;251;48.704;9.210;2022-09-09T04:19:25;12.50;52.90
530;DHT22;251;48.704;9.210;2022-09-09T04:21:52;12.40;51.70
530;DHT22;251;48.704;9.210;2022-09-09T04:24:21;12.40;51.90
530;DHT22;251;48.704;9.210;2022-09-09T04:26:50;12.40;54.10
530;DHT22;251;48.704;9.210;2022-09-09T04:29:17;12.50;53.70
530;DHT22;251;48.704;9.210;2022-09-09T04:31:44;12.40;51.90
530;DHT22;251;48.704;9.210;2022-09-09T04:34:12;12.70;54.20
530;DHT22;251;48.704;9.210;2022-09-09T04:36:39;12.40;54.50
530;DHT22;251;48.704;9.210;2022-09-09T04:39:06;12.50;55.30
530;DHT22;251;48.704;9.210;2022-09-09T04:41:33;12.60;55.60
530;DHT22;251;48.704;9.210;2022-09-09T04:44:04;12.50;55.90
530;DHT22;251;48.704;9.210;2022-09-09T04:46:32;12.70;57.00
530;DHT22;251;48.704;9.210;2022-09-09T04:49:00;12.70;57.50
530;DHT22;251;48.704;9.210;2022-09-09T04:51:30;12.80;58.70
530;DHT22;251;48.704;9.210;2022-09-09T04:53:57;12.40;59.90
530;DHT22;251;48.704;9.210;2022-09-09T04:56:24;12.40;60.20
530;DHT22;251;48.704;9.210;2022-09-09T04:58:56;12.30;59.30
530;DHT22;251;48.704;9.210;2022-09-09T05:01:33;12.50;59.30
530;DHT22;251;48.704;9.210;2022-09-09T05:04:02;12.60;60.20
530;DHT22;251;48.704;9.210;2022-09-09T05:06:31;12.50;58.20
530;DHT22;251;48.704;9.210;2022-09-09T05:08:59;12.40;58.00
530;DHT22;251;48.704;9.210;2022-09-09T05:11:30;12.50;57.00
530;DHT22;251;48.704;9.210;2022-09-09T05:14:02;12.50;57.50
530;DHT22;251;48.704;9.210;2022-09-09T05:16:30;12.50;55.40
530;DHT22;251;48.704;9.210;2022-09-09T05:18:59;12.50;57.20
530;DHT22;251;48.704;9.210;2022-09-09T05:21:36;12.50;58.90
530;DHT22;251;48.704;9.210;2022-09-09T05:24:03;12.40;61.20
530;DHT22;251;48.704;9.210;2022-09-09T05:26:30;12.40;59.70
530;DHT22;251;48.704;9.210;2022-09-09T05:28:58;12.50;61.40
530;DHT22;251;48.704;9.210;2022-09-09T05:31:26;12.60;62.40
530;DHT22;251;48.704;9.210;2022-09-09T05:33:55;12.60;64.80
530;DHT22;251;48.704;9.210;2022-09-09T05:36:23;12.70;66.10
530;DHT22;251;48.704;9.210;2022-09-09T05:38:54;12.50;68.00
530;DHT22;251;48.704;9.210;2022-09-09T05:41:21;12.80;72.70
530;DHT22;251;48.704;9.210;2022-09-09T05:43:48;12.70;73.90
530;DHT22;251;48.704;9.210;2022-09-09T05:46:17;13.10;74.40
530;DHT22;251;48.704;9.210;2022-09-09T05:48:47;12.80;71.90
530;DHT22;251;48.704;9.210;2022-09-09T05:51:17;13.10;73.50
530;DHT22;251;48.704;9.210;2022-09-09T05:53:48;12.90;74.40
530;DHT22;251;48.704;9.210;2022-09-09T05:56:17;13.40;77.90
530;DHT22;251;48.704;9.210;2022-09-09T05:58:46;13.10;77.20
530;DHT22;251;48.704;9.210;2022-09-09T06:01:16;13.20;78.80
530;DHT22;251;48.704;9.210;2022-09-09T06:03:45;13.50;81.30
530;DHT22;251;48.704;9.210;2022-09-09T06:06:14;13.30;80.40
530;DHT22;251;48.704;9.210;2022-09-09T06:08:42;13.60;79.10
530;DHT22;251;48.704;9.210;2022-09-09T06:11:14;13.60;76.40
530;DHT22;251;48.704;9.210;2022-09-09T06:13:42;13.70;77.80
530;DHT22;251;48.704;9.210;2022-09-09T06:16:10;13.60;76.40
530;DHT22;251;48.704;9.210;2022-09-09T06:18:38;13.60;77.10
530;DHT22;251;48.704;9.210;2022-09-09T06:21:07;13.80;76.20
530;DHT22;251;48.704;9.210;2022-09-09T06:23:35;13.70;70.10
530;DHT22;251;48.704;9.210;2022-09-09T06:26:04;13.90;66.50
530;DHT22;251;48.704;9.210;2022-09-09T06:28:35;13.90;68.20
530;DHT22;251;48.704;9.210;2022-09-09T06:31:04;14.10;67.70
530;DHT22;251;48.704;9.210;2022-09-09T06:33:32;14.10;67.70
530;DHT22;251;48.704;9.210;2022-09-09T06:36:02;14.00;68.30
530;DHT22;251;48.704;9.210;2022-09-09T06:38:29;14.20;69.60
530;DHT22;251;48.704;9.210;2022-09-09T06:40:57;14.50;69.90
530;DHT22;251;48.704;9.210;2022-09-09T06:43:25;14.20;69.00
530;DHT22;251;48.704;9.210;2022-09-09T06:45:57;14.50;64.70
530;DHT22;251;48.704;9.210;2022-09-09T06:48:24;14.30;65.60
530;DHT22;251;48.704;9.210;2022-09-09T06:51:00;14.90;62.30
530;DHT22;251;48.704;9.210;2022-09-09T06:53:28;14.90;59.30
530;DHT22;251;48.704;9.210;2022-09-09T06:55:55;14.90;63.00
530;DHT22;251;48.704;9.210;2022-09-09T06:58:22;14.90;63.70
530;DHT22;251;48.704;9.210;2022-09-09T07:00:49;15.00;57.80
530;DHT22;251;48.704;9.210;2022-09-09T07:03:18;15.10;55.30
530;DHT22;251;48.704;9.210;2022-09-09T07:05:54;15.00;53.20
530;DHT22;251;48.704;9.210;2022-09-09T07:08:22;15.20;48.30
530;DHT22;251;48.704;9.210;2022-09-09T07:10:50;15.20;49.00
530;DHT22;251;48.704;9.210;2022-09-09T07:13:20;15.40;50.30
530;DHT22;251;48.704;9.210;2022-09-09T07:15:50;15.30;46.80
530;DHT22;251;48.704;9.210;2022-09-09T07:18:19;15.40;47.20
530;DHT22;251;48.704;9.210;2022-09-09T07:20:53;15.70;46.60
530;DHT22;251;48.704;9.210;2022-09-09T07:23:19;15.60;44.80
530;DHT22;251;48.704;9.210;2022-09-09T07:25:47;16.00;42.40
530;DHT22;251;48.704;9.210;2022-09-09T07:28:15;15.90;42.20
530;DHT22;251;48.704;9.210;2022-09-09T07:30:42;15.80;39.60
530;DHT22;251;48.704;9.210;2022-09-09T07:33:09;16.10;40.20
530;DHT22;251;48.704;9.210;2022-09-09T07:35:37;15.80;37.40
530;DHT22;251;48.704;9.210;2022-09-09T07:38:05;16.10;37.40
530;DHT22;251;48.704;9.210;2022-09-09T07:40:32;16.20;39.40
530;DHT22;251;48.704;9.210;2022-09-09T07:42:59;16.20;39.10
530;DHT22;251;48.704;9.210;2022-09-09T07:45:26;16.50;36.90
530;DHT22;251;48.704;9.210;2022-09-09T07:47:54;16.40;36.80
530;DHT22;251;48.704;9.210;2022-09-09T07:50:22;16.50;37.80
530;DHT22;251;48.704;9.210;2022-09-09T07:52:51;16.30;36.50
530;DHT22;251;48.704;9.210;2022-09-09T07:55:19;16.40;36.00
530;DHT22;251;48.704;9.210;2022-09-09T07:57:46;16.50;35.70
530;DHT22;251;48.704;9.210;2022-09-09T08:00:15;16.60;35.70
530;DHT22;251;48.704;9.210;2022-09-09T08:02:47;16.50;36.40
530;DHT22;251;48.704;9.210;2022-09-09T08:05:14;16.50;35.90
530;DHT22;251;48.704;9.210;2022-09-09T08:07:44;16.70;35.20
530;DHT22;251;48.704;9.210;2022-09-09T08:10:12;16.50;34.90
530;DHT22;251;48.704;9.210;2022-09-09T08:12:40;16.80;34.50
530;DHT22;251;48.704;9.210;2022-09-09T08:15:07;16.70;34.50
530;DHT22;251;48.704;9.210;2022-09-09T08:17:34;16.60;33.60
530;DHT22;251;48.704;9.210;2022-09-09T08:20:05;17.30;35.60
530;DHT22;251;48.704;9.210;2022-09-09T08:22:33;17.00;33.90
530;DHT22;251;48.704;9.210;2022-09-09T08:25:03;17.00;32.70
530;DHT22;251;48.704;9.210;2022-09-09T08:27:33;17.10;32.50
530;DHT22;251;48.704;9.210;2022-09-09T08:30:00;17.60;32.50
530;DHT22;251;48.704;9.210;2022-09-09T08:32:28;17.30;31.50
530;DHT22;251;48.704;9.210;2022-09-09T08:34:55;17.80;32.00
530;DHT22;251;48.704;9.210;2022-09-09T08:37:23;17.70;28.40
530;DHT22;251;48.704;9.210;2022-09-09T08:39:50;17.70;29.30
530;DHT22;251;48.704;9.210;2022-09-09T08:42:28;17.90;27.30
530;DHT22;251;48.704;9.210;2022-09-09T08:45:15;18.00;27.90
530;DHT22;251;48.704;9.210;2022-09-09T08:50:39;18.10;25.90
530;DHT22;251;48.704;9.210;2022-09-09T08:53:17;18.20;24.50
530;DHT22;251;48.704;9.210;2022-09-09T08:55:47;18.30;23.90
530;DHT22;251;48.704;9.210;2022-09-09T08:58:19;18.50;24.40
530;DHT22;251;48.704;9.210;2022-09-09T09:01:12;18.40;24.00
530;DHT22;251;48.704;9.210;2022-09-09T09:03:51;18.80;23.60
530;DHT22;251;48.704;9.210;2022-09-09T09:06:30;18.70;24.00
530;DHT22;251;48.704;9.210;2022-09-09T09:09:07;18.70;23.50
530;DHT22;251;48.704;9.210;2022-09-09T09:11:37;19.20;24.40
530;DHT22;251;48.704;9.210;2022-09-09T09:14:10;19.10;22.80
530;DHT22;251;48.704;9.210;2022-09-09T09:16:48;19.30;22.80
530;DHT22;251;48.704;9.210;2022-09-09T09:19:17;19.20;22.00
530;DHT22;251;48.704;9.210;2022-09-09T09:21:50;19.40;21.30
530;DHT22;251;48.704;9.210;2022-09-09T09:24:20;19.50;21.60
530;DHT22;251;48.704;9.210;2022-09-09T09:26:50;19.60;22.10
530;DHT22;251;48.704;9.210;2022-09-09T09:29:20;19.60;22.20
530;DHT22;251;48.704;9.210;2022-09-09T09:31:52;19.10;16.40
530;DHT22;251;48.704;9.210;2022-09-09T09:34:22;18.30;26.80
530;DHT22;251;48.704;9.210;2022-09-09T09:36:53;17.50;29.40
530;DHT22;251;48.704;9.210;2022-09-09T09:39:25;17.10;34.60
530;DHT22;251;48.704;9.210;2022-09-09T09:41:54;16.80;29.10
530;DHT22;251;48.704;9.210;2022-09-09T09:44:24;16.60;33.40
530;DHT22;251;48.704;9.210;2022-09-09T09:46:53;16.00;43.80
530;DHT22;251;48.704;9.210;2022-09-09T09:49:20;16.00;52.50
530;DHT22;251;48.704;9.210;2022-09-09T09:51:47;15.80;46.90
530;DHT22;251;48.704;9.210;2022-09-09T09:54:18;15.90;46.50
530;DHT22;251;48.704;9.210;2022-09-09T09:56:52;15.90;47.90
530;DHT22;251;48.704;9.210;2022-09-09T09:59:22;15.90;41.20
530;DHT22;251;48.704;9.210;2022-09-09T10:01:49;15.80;55.40
530;DHT22;251;48.704;9.210;2022-09-09T10:04:21;15.90;51.00
530;DHT22;251;48.704;9.210;2022-09-09T10:06:51;16.10;56.60
530;DHT22;251;48.704;9.210;2022-09-09T10:09:22;15.90;58.10
530;DHT22;251;48.704;9.210;2022-09-09T10:11:55;16.00;51.70
530;DHT22;251;48.704;9.210;2022-09-09T10:14:31;16.30;47.90
530;DHT22;251;48.704;9.210;2022-09-09T10:17:10;16.50;51.20
530;DHT22;251;48.704;9.210;2022-09-09T10:19:47;16.40;52.40
530;DHT22;251;48.704;9.210;2022-09-09T10:22:25;16.30;58.80
530;DHT22;251;48.704;9.210;2022-09-09T10:25:23;16.40;54.60
530;DHT22;251;48.704;9.210;2022-09-09T10:28:08;16.60;55.50
530;DHT22;251;48.704;9.210;2022-09-09T10:30:47;16.50;54.20
530;DHT22;251;48.704;9.210;2022-09-09T10:33:27;17.00;50.40
530;DHT22;251;48.704;9.210;2022-09-09T10:36:02;17.10;54.30
530;DHT22;251;48.704;9.210;2022-09-09T10:38:39;17.20;56.30
530;DHT22;251;48.704;9.210;2022-09-09T10:41:15;17.40;50.30
530;DHT22;251;48.704;9.210;2022-09-09T10:44:02;17.20;46.10
530;DHT22;251;48.704;9.210;2022-09-09T10:46:40;17.60;43.40
530;DHT22;251;48.704;9.210;2022-09-09T10:49:19;17.80;39.00
530;DHT22;251;48.704;9.210;2022-09-09T10:51:56;18.00;31.40
530;DHT22;251;48.704;9.210;2022-09-09T10:54:35;18.10;33.50
530;DHT22;251;48.704;9.210;2022-09-09T10:57:10;18.60;36.50
530;DHT22;251;48.704;9.210;2022-09-09T10:59:42;18.50;30.70
530;DHT22;251;48.704;9.210;2022-09-09T11:02:15;18.60;35.20
530;DHT22;251;48.704;9.210;2022-09-09T11:04:50;18.80;26.60
530;DHT22;251;48.704;9.210;2022-09-09T11:07:26;19.10;27.10
530;DHT22;251;48.704;9.210;2022-09-09T11:09:59;19.40;25.50
530;DHT22;251;48.704;9.210;2022-09-09T11:12:28;19.40;24.50
530;DHT22;251;48.704;9.210;2022-09-09T11:14:59;19.30;24.10
530;DHT22;251;48.704;9.210;2022-09-09T11:17:35;19.10;24.30
530;DHT22;251;48.704;9.210;2022-09-09T11:20:05;18.80;24.80
530;DHT22;251;48.704;9.210;2022-09-09T11:22:36;19.30;24.40
530;DHT22;251;48.704;9.210;2022-09-09T11:25:08;19.20;22.30
530;DHT22;251;48.704;9.210;2022-09-09T11:27:42;18.90;25.80
530;DHT22;251;48.704;9.210;2022-09-09T11:30:19;18.50;27.00
530;DHT22;251;48.704;9.210;2022-09-09T11:33:04;18.60;29.50
530;DHT22;251;48.704;9.210;2022-09-09T11:35:43;18.00;23.80
530;DHT22;251;48.704;9.210;2022-09-09T11:38:24;17.90;28.60
530;DHT22;251;48.704;9.210;2022-09-09T11:41:00;17.40;30.20
530;DHT22;251;48.704;9.210;2022-09-09T11:43:30;17.40;26.50
530;DHT22;251;48.704;9.210;2022-09-09T11:46:00;17.30;30.10
530;DHT22;251;48.704;9.210;2022-09-09T11:48:34;17.40;29.10
530;DHT22;251;48.704;9.210;2022-09-09T11:51:06;17.60;27.20
530;DHT22;251;48.704;9.210;2022-09-09T11:53:46;17.70;27.90
530;DHT22;251;48.704;9.210;2022-09-09T11:56:24;17.80;27.20
530;DHT22;251;48.704;9.210;2022-09-09T11:58:59;17.70;26.40
530;DHT22;251;48.704;9.210;2022-09-09T12:01:39;17.70;24.50
530;DHT22;251;48.704;9.210;2022-09-09T12:04:18;17.70;22.30
530;DHT22;251;48.704;9.210;2022-09-09T12:06:51;17.70;22.90
530;DHT22;251;48.704;9.210;2022-09-09T12:09:25;17.60;20.40
530;DHT22;251;48.704;9.210;2022-09-09T12:12:04;17.70;23.10
530;DHT22;251;48.704;9.210;2022-09-09T12:14:36;17.60;20.50
530;DHT22;251;48.704;9.210;2022-09-09T12:17:19;17.70;21.00
530;DHT22;251;48.704;9.210;2022-09-09T12:19:47;18.00;21.50
530;DHT22;251;48.704;9.210;2022-09-09T12:22:24;18.20;21.30
530;DHT22;251;48.704;9.210;2022-09-09T12:25:05;18.10;20.60
530;DHT22;251;48.704;9.210;2022-09-09T12:27:43;18.30;19.20
530;DHT22;251;48.704;9.210;2022-09-09T12:30:14;18.40;17.00
530;DHT22;251;48.704;9.210;2022-09-09T12:32:42;18.60;15.40
530;DHT22;251;48.704;9.210;2022-09-09T12:35:11;18.80;19.00
530;DHT22;251;48.704;9.210;2022-09-09T12:37:41;18.80;15.70
530;DHT22;251;48.704;9.210;2022-09-09T12:40:22;19.40;15.50
530;DHT22;251;48.704;9.210;2022-09-09T12:42:49;19.50;16.30
530;DHT22;251;48.704;9.210;2022-09-09T12:45:17;19.50;14.80
530;DHT22;251;48.704;9.210;2022-09-09T12:47:47;19.70;14.60
530;DHT22;251;48.704;9.210;2022-09-09T12:50:17;20.00;12.90
530;DHT22;251;48.704;9.210;2022-09-09T12:52:46;19.60;14.10
530;DHT22;251;48.704;9.210;2022-09-09T12:55:17;19.70;13.80
530;DHT22;251;48.704;9.210;2022-09-09T12:57:46;19.70;14.40
530;DHT22;251;48.704;9.210;2022-09-09T13:00:16;19.70;14.40
530;DHT22;251;48.704;9.210;2022-09-09T13:02:48;19.80;14.50
530;DHT22;251;48.704;9.210;2022-09-09T13:05:18;20.00;12.30
530;DHT22;251;48.704;9.210;2022-09-09T13:07:45;19.70;13.60
530;DHT22;251;48.704;9.210;2022-09-09T13:10:14;19.90;14.60
530;DHT22;251;48.704;9.210;2022-09-09T13:12:42;19.80;12.50
530;DHT22;251;48.704;9.210;2022-09-09T13:15:19;20.00;13.20
530;DHT22;251;48.704;9.210;2022-09-09T13:17:52;19.70;10.70
530;DHT22;251;48.704;9.210;2022-09-09T13:20:21;20.00;12.90
530;DHT22;251;48.704;9.210;2022-09-09T13:22:49;19.60;11.30
530;DHT22;251;48.704;9.210;2022-09-09T13:25:21;20.00;12.90
530;DHT22;251;48.704;9.210;2022-09-09T13:27:58;20.10;12.30
530;DHT22;251;48.704;9.210;2022-09-09T13:30:29;19.80;11.50
530;DHT22;251;48.704;9.210;2022-09-09T13:35:48;20.40;10.30
530;DHT22;251;48.704;9.210;2022-09-09T13:38:16;20.40;9.40
530;DHT22;251;48.704;9.210;2022-09-09T13:40:52;20.50;10.30
530;DHT22;251;48.704;9.210;2022-09-09T13:43:22;20.60;10.20
530;DHT22;251;48.704;9.210;2022-09-09T13:45:55;20.60;10.20
530;DHT22;251;48.704;9.210;2022-09-09T13:48:24;20.70;9.80
530;DHT22;251;48.704;9.210;2022-09-09T13:50:59;20.70;9.30
530;DHT22;251;48.704;9.210;2022-09-09T13:53:26;20.80;9.80
530;DHT22;251;48.704;9.210;2022-09-09T13:55:53;20.80;10.30
530;DHT22;251;48.704;9.210;2022-09-09T13:58:22;20.90;10.00
530;DHT22;251;48.704;9.210;2022-09-09T14:00:51;21.00;10.00
530;DHT22;251;48.704;9.210;2022-09-09T14:03:19;21.00;9.40
530;DHT22;251;48.704;9.210;2022-09-09T14:05:46;21.10;9.60
530;DHT22;251;48.704;9.210;2022-09-09T14:08:25;21.10;10.50
530;DHT22;251;48.704;9.210;2022-09-09T14:10:52;21.20;9.30
530;DHT22;251;48.704;9.210;2022-09-09T14:13:20;21.30;8.60
530;DHT22;251;48.704;9.210;2022-09-09T14:15:48;21.30;10.20
530;DHT22;251;48.704;9.210;2022-09-09T14:18:16;21.40;10.40
530;DHT22;251;48.704;9.210;2022-09-09T14:20:45;21.50;8.50
530;DHT22;251;48.704;9.210;2022-09-09T14:23:12;21.50;7.00
530;DHT22;251;48.704;9.210;2022-09-09T14:25:41;21.50;6.50
530;DHT22;251;48.704;9.210;2022-09-09T14:28:12;21.50;6.00
530;DHT22;251;48.704;9.210;2022-09-09T14:30:40;21.50;4.90
530;DHT22;251;48.704;9.210;2022-09-09T14:33:09;21.50;5.40
530;DHT22;251;48.704;9.210;2022-09-09T14:35:36;21.60;6.30
530;DHT22;251;48.704;9.210;2022-09-09T14:38:05;21.70;6.10
530;DHT22;251;48.704;9.210;2022-09-09T14:40:33;21.70;5.10
530;DHT22;251;48.704;9.210;2022-09-09T14:43:00;21.80;4.80
530;DHT22;251;48.704;9.210;2022-09-09T14:45:27;21.80;3.10
530;DHT22;251;48.704;9.210;2022-09-09T14:47:54;21.90;3.60
530;DHT22;251;48.704;9.210;2022-09-09T14:50:22;21.90;3.00
530;DHT22;251;48.704;9.210;2022-09-09T14:52:49;22.00;3.70
530;DHT22;251;48.704;9.210;2022-09-09T14:55:18;22.00;3.70
530;DHT22;251;48.704;9.210;2022-09-09T14:57:45;22.10;2.50
530;DHT22;251;48.704;9.210;2022-09-09T15:00:12;22.10;3.20
530;DHT22;251;48.704;9.210;2022-09-09T15:02:39;22.10;2.80
530;DHT22;251;48.704;9.210;2022-09-09T15:05:06;22.00;2.10
530;DHT22;251;48.704;9.210;2022-09-09T15:07:33;22.00;3.10
530;DHT22;251;48.704;9.210;2022-09-09T15:10:02;21.90;2.30
530;DHT22;251;48.704;9.210;2022-09-09T15:12:30;21.90;2.00
530;DHT22;251;48.704;9.210;2022-09-09T15:14:58;21.80;3.70
530;DHT22;251;48.704;9.210;2022-09-09T15:17:25;21.70;2.60
530;DHT22;251;48.704;9.210;2022-09-09T15:19:53;21.60;3.50
530;DHT22;251;48.704;9.210;2022-09-09T15:22:20;21.40;3.60
530;DHT22;251;48.704;9.210;2022-09-09T15:24:47;21.30;4.80
530;DHT22;251;48.704;9.210;2022-09-09T15:27:14;21.10;4.80
530;DHT22;251;48.704;9.210;2022-09-09T15:29:42;21.30;6.60
530;DHT22;251;48.704;9.210;2022-09-09T15:32:09;21.30;6.10
530;DHT22;251;48.704;9.210;2022-09-09T15:34:36;21.40;6.00
530;DHT22;251;48.704;9.210;2022-09-09T15:37:03;21.50;5.50
530;DHT22;251;48.704;9.210;2022-09-09T15:39:30;21.70;5.10
530;DHT22;251;48.704;9.210;2022-09-09T15:41:56;21.80;5.40
530;DHT22;251;48.704;9.210;2022-09-09T15:44:23;21.80;5.10
530;DHT22;251;48.704;9.210;2022-09-09T15:46:52;21.70;5.10
530;DHT22;251;48.704;9.210;2022-09-09T15:49:22;21.60;4.90
530;DHT22;251;48.704;9.210;2022-09-09T15:51:52;21.50;4.30
530;DHT22;251;48.704;9.210;2022-09-09T15:54:20;21.30;3.20
530;DHT22;251;48.704;9.210;2022-09-09T15:56:51;21.20;3.10
530;DHT22;251;48.704;9.210;2022-09-09T15:59:18;21.10;3.60
530;DHT22;251;48.704;9.210;2022-09-09T16:01:45;21.00;3.50
530;DHT22;251;48.704;9.210;2022-09-09T16:04:13;20.90;4.50
530;DHT22;251;48.704;9.210;2022-09-09T16:06:41;20.80;4.40
530;DHT22;251;48.704;9.210;2022-09-09T16:09:08;20.70;5.60
530;DHT22;251;48.704;9.210;2022-09-09T16:11:37;20.60;4.90
530;DHT22;251;48.704;9.210;2022-09-09T16:14:05;20.60;5.00
530;DHT22;251;48.704;9.210;2022-09-09T16:16:32;20.50;6.30
530;DHT22;251;48.704;9.210;2022-09-09T16:19:03;20.50;5.90
530;DHT22;251;48.704;9.210;2022-09-09T16:21:33;20.30;6.60
530;DHT22;251;48.704;9.210;2022-09-09T16:24:02;20.50;6.40
530;DHT22;251;48.704;9.210;2022-09-09T16:26:30;20.40;5.70
530;DHT22;251;48.704;9.210;2022-09-09T16:28:58;20.30;6.10
530;DHT22;251;48.704;9.210;2022-09-09T16:31:26;20.50;7.20
530;DHT22;251;48.704;9.210;2022-09-09T16:33:53;20.20;7.70
530;DHT22;251;48.704;9.210;2022-09-09T16:36:21;20.10;7.30
530;DHT22;251;48.704;9.210;2022-09-09T16:38:52;20.10;6.40
530;DHT22;251;48.704;9.210;2022-09-09T16:41:19;20.10;6.90
530;DHT22;251;48.704;9.210;2022-09-09T16:43:46;20.10;8.00
530;DHT22;251;48.704;9.210;2022-09-09T16:46:14;20.10;7.10
530;DHT22;251;48.704;9.210;2022-09-09T16:48:42;20.00;7.30
530;DHT22;251;48.704;9.210;2022-09-09T16:51:12;20.20;8.50
530;DHT22;251;48.704;9.210;2022-09-09T16:53:41;19.90;9.00
530;DHT22;251;48.704;9.210;2022-09-09T16:56:11;19.60;9.00
530;DHT22;251;48.704;9.210;2022-09-09T16:58:38;19.60;9.50
530;DHT22;251;48.704;9.210;2022-09-09T17:01:05;19.70;9.70
530;DHT22;251;48.704;9.210;2022-09-09T17:03:32;19.60;9.70
530;DHT22;251;48.704;9.210;2022-09-09T17:05:59;19.50;11.70
530;DHT22;251;48.704;9.210;2022-09-09T17:08:28;19.50;10.00